Time;durP1;ratioP1;P1;durP2;ratioP2;P2;SDS_P1;SDS_P2;PMS_P1;PMS_P2;Temp;Humidity;BMP_temperature;BMP_pressure;BME280_temperature;BME280_humidity;BME280_pressure;Samples;Min_cycle;Max_cycle;Signal;HPM_P1;HPM_P2
2023/06/28 00:01:19;;;;;;;7.50;5.90;;;18.00;99.90;;;;;;5001237;28;20220;-82
2023/06/28 00:03:45;;;;;;;6.40;5.90;;;18.00;99.90;;;;;;5018800;28;20177;-84
2023/06/28 00:06:10;;;;;;;7.10;6.40;;;17.90;99.90;;;;;;5018268;28;20177;-82
2023/06/28 00:08:36;;;;;;;6.77;6.23;;;17.90;99.90;;;;;;5018538;28;20176;-82
2023/06/28 00:11:02;;;;;;;6.40;5.93;;;17.90;99.90;;;;;;5000939;28;20626;-83
2023/06/28 00:13:29;;;;;;;6.83;6.20;;;17.90;99.90;;;;;;5018906;28;20259;-81
2023/06/28 00:15:55;;;;;;;7.13;6.43;;;17.90;99.90;;;;;;5000253;28;20188;-83
2023/06/28 00:18:22;;;;;;;7.23;6.63;;;17.80;99.90;;;;;;5018372;28;20168;-81
2023/06/28 00:20:50;;;;;;;7.20;6.60;;;17.90;99.90;;;;;;5017858;28;21026;-84
2023/06/28 00:23:16;;;;;;;6.60;6.10;;;17.80;99.90;;;;;;5018190;28;20188;-80
2023/06/28 00:25:43;;;;;;;7.57;5.93;;;17.80;99.90;;;;;;5018665;28;20258;-82
2023/06/28 00:28:09;;;;;;;7.33;6.57;;;17.90;99.90;;;;;;5022629;28;20173;-82
2023/06/28 00:30:34;;;;;;;6.63;6.03;;;17.90;99.90;;;;;;5022161;28;20170;-83
2023/06/28 00:33:00;;;;;;;6.63;5.70;;;17.90;99.90;;;;;;5023275;28;20182;-82
2023/06/28 00:35:27;;;;;;;8.03;6.60;;;17.80;99.90;;;;;;5006156;28;20176;-84
2023/06/28 00:37:52;;;;;;;6.60;6.00;;;17.90;99.90;;;;;;5022127;28;20219;-83
2023/06/28 00:40:18;;;;;;;7.17;6.57;;;17.90;99.90;;;;;;5004239;28;20204;-81
2023/06/28 00:42:44;;;;;;;6.60;6.00;;;17.90;99.90;;;;;;5021929;28;20180;-81
2023/06/28 00:45:13;;;;;;;7.00;6.30;;;17.90;99.90;;;;;;5022126;28;20176;-81
2023/06/28 00:47:41;;;;;;;6.57;5.90;;;17.80;99.90;;;;;;5021519;28;20174;-82
2023/06/28 00:50:09;;;;;;;6.97;6.17;;;17.80;99.90;;;;;;5021424;28;20643;-82
2023/06/28 00:52:35;;;;;;;6.60;6.00;;;17.80;99.90;;;;;;5021899;28;20204;-82
2023/06/28 00:55:03;;;;;;;7.10;6.50;;;17.80;99.90;;;;;;5003929;28;20184;-82
2023/06/28 00:57:29;;;;;;;6.80;6.20;;;17.70;99.90;;;;;;5022121;28;20169;-83
2023/06/28 00:59:58;;;;;;;7.03;6.43;;;17.60;99.90;;;;;;5021986;28;20184;-82
2023/06/28 01:02:29;;;;;;;7.83;6.33;;;17.60;99.90;;;;;;5022370;28;20181;-84
2023/06/28 01:04:57;;;;;;;7.10;6.50;;;17.70;99.90;;;;;;5004706;28;20257;-84
2023/06/28 01:07:27;;;;;;;7.17;6.57;;;17.70;99.90;;;;;;5021986;28;20183;-84
2023/06/28 01:09:56;;;;;;;7.03;6.30;;;17.70;99.90;;;;;;5007380;28;20184;-86
2023/06/28 01:12:25;;;;;;;7.50;6.70;;;17.60;99.90;;;;;;5037878;28;20154;-84
2023/06/28 01:14:51;;;;;;;7.43;6.73;;;17.60;99.90;;;;;;5020595;28;20178;-84
2023/06/28 01:17:17;;;;;;;7.97;7.23;;;17.60;99.90;;;;;;5021700;28;20261;-83
2023/06/28 01:19:43;;;;;;;7.80;6.77;;;17.60;99.90;;;;;;5022932;28;20257;-84
2023/06/28 01:22:12;;;;;;;8.17;6.90;;;17.60;99.90;;;;;;5008593;28;20253;-82
2023/06/28 01:24:38;;;;;;;7.10;6.50;;;17.50;99.90;;;;;;5033799;28;20161;-85
2023/06/28 01:27:09;;;;;;;9.30;7.50;;;17.40;99.90;;;;;;5025497;28;20254;-84
2023/06/28 01:29:36;;;;;;;7.73;6.93;;;17.50;99.90;;;;;;5022431;28;20173;-83
2023/06/28 01:32:05;;;;;;;7.40;6.70;;;17.50;99.90;;;;;;5004763;28;20189;-84
2023/06/28 01:34:31;;;;;;;7.63;6.87;;;17.50;99.90;;;;;;4998958;28;20638;-84
2023/06/28 01:36:59;;;;;;;8.20;7.27;;;17.60;99.90;;;;;;4998206;28;20188;-85
2023/06/28 01:39:26;;;;;;;7.93;7.20;;;17.60;99.90;;;;;;5015805;28;20172;-84
2023/06/28 01:41:53;;;;;;;7.60;7.00;;;17.60;99.90;;;;;;5015822;28;20212;-84
2023/06/28 01:44:19;;;;;;;8.27;7.33;;;17.60;99.90;;;;;;5016228;28;20172;-85
2023/06/28 01:46:46;;;;;;;8.80;8.00;;;17.60;99.90;;;;;;5016126;28;20181;-83
2023/06/28 01:49:12;;;;;;;8.73;7.97;;;17.60;99.90;;;;;;5016189;28;20208;-83
2023/06/28 01:51:39;;;;;;;10.40;8.20;;;17.50;99.90;;;;;;5015993;28;20183;-84
2023/06/28 01:54:05;;;;;;;8.93;8.07;;;17.50;99.90;;;;;;5015987;28;20179;-86
2023/06/28 01:56:31;;;;;;;9.07;8.17;;;17.60;99.90;;;;;;5016027;28;20189;-84
2023/06/28 01:58:57;;;;;;;8.47;7.77;;;17.50;99.90;;;;;;5016117;28;20212;-86
2023/06/28 02:01:23;;;;;;;9.53;7.53;;;17.60;99.90;;;;;;5015830;28;20222;-86
2023/06/28 02:03:48;;;;;;;8.37;7.57;;;17.70;99.90;;;;;;5015758;28;20228;-83
2023/06/28 02:06:15;;;;;;;7.57;6.97;;;17.70;99.90;;;;;;4998257;28;20180;-86
2023/06/28 02:08:41;;;;;;;8.10;7.30;;;17.70;99.90;;;;;;5015875;28;20171;-86
2023/06/28 02:11:07;;;;;;;7.83;7.03;;;17.60;99.90;;;;;;5015571;28;20183;-84
2023/06/28 02:13:33;;;;;;;8.03;7.03;;;17.40;99.90;;;;;;5015898;28;20199;-86
2023/06/28 02:15:58;;;;;;;7.60;6.90;;;17.40;99.90;;;;;;5015517;28;20175;-85
2023/06/28 02:18:27;;;;;;;8.00;7.40;;;17.40;99.90;;;;;;5015252;28;20177;-85
2023/06/28 02:20:52;;;;;;;7.67;7.03;;;17.40;99.90;;;;;;5015430;28;20217;-81
2023/06/28 02:23:21;;;;;;;7.73;7.03;;;17.30;99.90;;;;;;5015334;28;20309;-83
2023/06/28 02:25:47;;;;;;;8.30;7.47;;;17.30;99.90;;;;;;5015187;28;20708;-85
2023/06/28 02:28:13;;;;;;;8.17;7.37;;;17.20;99.90;;;;;;5015847;28;20184;-84
2023/06/28 02:30:39;;;;;;;7.33;6.63;;;17.20;99.90;;;;;;5015437;28;20189;-83
2023/06/28 02:33:04;;;;;;;7.40;6.80;;;17.20;99.90;;;;;;5016874;28;20184;-83
2023/06/28 02:35:31;;;;;;;7.37;6.47;;;17.20;99.90;;;;;;5016894;28;20227;-83
2023/06/28 02:37:56;;;;;;;7.63;6.93;;;17.20;99.90;;;;;;4998575;28;20275;-84
2023/06/28 02:40:24;;;;;;;6.83;5.73;;;17.30;99.90;;;;;;5015048;28;20754;-84
2023/06/28 02:42:50;;;;;;;6.50;5.80;;;17.20;99.90;;;;;;4997500;28;20533;-83
2023/06/28 02:45:16;;;;;;;6.60;6.00;;;17.30;99.90;;;;;;5014794;28;20708;-85
2023/06/28 02:47:42;;;;;;;6.80;5.77;;;17.30;99.90;;;;;;5014729;28;20260;-83
2023/06/28 02:50:08;;;;;;;6.53;6.03;;;17.30;99.90;;;;;;5021711;28;20173;-83
2023/06/28 02:52:33;;;;;;;6.43;5.90;;;17.20;99.90;;;;;;5022395;28;20280;-83
2023/06/28 02:54:59;;;;;;;8.17;6.87;;;17.30;99.90;;;;;;4997051;28;20741;-82
2023/06/28 02:57:26;;;;;;;6.50;6.00;;;17.30;99.90;;;;;;4997084;28;20233;-82
2023/06/28 02:59:51;;;;;;;7.10;6.40;;;17.30;99.90;;;;;;4997194;28;20188;-84
2023/06/28 03:02:17;;;;;;;7.00;6.40;;;17.30;99.90;;;;;;5029019;28;20212;-86
2023/06/28 03:04:44;;;;;;;7.63;6.93;;;17.30;99.90;;;;;;5019971;28;20176;-84
2023/06/28 03:07:16;;;;;;;7.43;6.73;;;17.30;99.90;;;;;;5014157;28;20263;-83
2023/06/28 03:09:42;;;;;;;8.37;6.33;;;17.20;99.90;;;;;;5014150;28;20231;-86
2023/06/28 03:12:08;;;;;;;7.27;6.57;;;17.20;99.90;;;;;;5014043;28;20200;-85
2023/06/28 03:14:35;;;;;;;6.63;6.03;;;17.20;99.90;;;;;;5014254;28;20185;-85
2023/06/28 03:17:00;;;;;;;6.03;5.57;;;17.20;99.90;;;;;;5015697;28;20187;-85
2023/06/28 03:19:26;;;;;;;5.43;5.03;;;17.20;99.90;;;;;;5014109;28;20263;-85
2023/06/28 03:21:52;;;;;;;7.97;5.17;;;17.10;99.90;;;;;;5013772;28;20209;-85
2023/06/28 03:24:18;;;;;;;5.40;4.80;;;17.10;99.90;;;;;;5013940;28;20169;-85
2023/06/28 03:26:44;;;;;;;4.80;4.40;;;17.00;99.90;;;;;;4992865;28;20233;-85
2023/06/28 03:29:10;;;;;;;5.07;3.97;;;17.00;99.90;;;;;;4993186;28;20182;-85
2023/06/28 03:31:35;;;;;;;4.03;3.80;;;16.90;99.90;;;;;;4994022;28;20186;-85
2023/06/28 03:34:01;;;;;;;3.53;3.33;;;16.70;99.90;;;;;;4994325;28;20272;-84
2023/06/28 03:36:31;;;;;;;3.33;3.13;;;16.60;99.90;;;;;;4994138;28;20601;-83
2023/06/28 03:38:57;;;;;;;3.43;3.23;;;16.60;99.90;;;;;;4997583;28;20528;-85
2023/06/28 03:41:26;;;;;;;3.40;3.10;;;16.50;99.90;;;;;;4996638;28;20206;-83
2023/06/28 03:43:52;;;;;;;3.10;2.90;;;16.40;99.90;;;;;;4992594;28;20700;-84
2023/06/28 03:46:17;;;;;;;2.97;2.77;;;16.40;99.90;;;;;;4994219;28;20173;-84
2023/06/28 03:48:43;;;;;;;3.13;2.93;;;16.40;99.90;;;;;;4993985;28;20181;-81
2023/06/28 03:51:09;;;;;;;2.73;2.63;;;16.40;99.90;;;;;;5007512;28;20181;-82
2023/06/28 03:53:35;;;;;;;3.00;2.80;;;16.30;99.90;;;;;;5007972;28;20257;-82
2023/06/28 03:56:01;;;;;;;3.37;3.17;;;16.30;99.90;;;;;;4998838;28;20182;-84
2023/06/28 03:58:27;;;;;;;3.30;3.10;;;16.20;99.90;;;;;;4994161;28;20186;-83
2023/06/28 04:00:53;;;;;;;2.97;2.77;;;16.30;99.90;;;;;;4993211;28;20678;-85
2023/06/28 04:03:19;;;;;;;3.47;3.20;;;16.20;99.90;;;;;;4993811;28;20198;-86
2023/06/28 04:05:45;;;;;;;3.20;3.00;;;16.20;99.90;;;;;;4994978;28;20511;-83
2023/06/28 04:08:11;;;;;;;2.97;2.80;;;16.20;99.90;;;;;;4997426;28;20643;-84
2023/06/28 04:10:38;;;;;;;3.23;3.07;;;16.20;99.90;;;;;;4995297;28;20174;-85
2023/06/28 04:13:04;;;;;;;4.10;2.60;;;16.20;99.90;;;;;;4992766;28;20177;-84
2023/06/28 04:15:30;;;;;;;3.13;2.93;;;16.20;99.90;;;;;;4994858;28;20170;-85
2023/06/28 04:17:56;;;;;;;2.83;2.63;;;16.20;99.90;;;;;;4996793;28;20188;-86
2023/06/28 04:20:21;;;;;;;3.90;2.97;;;16.20;99.90;;;;;;4994902;28;20205;-82
2023/06/28 04:22:47;;;;;;;4.10;3.23;;;16.20;99.90;;;;;;4994204;28;20179;-84
2023/06/28 04:25:13;;;;;;;2.87;2.77;;;16.20;99.90;;;;;;4997259;28;20252;-84
2023/06/28 04:27:38;;;;;;;3.73;2.80;;;16.10;99.90;;;;;;5014254;28;20639;-82
2023/06/28 04:30:05;;;;;;;2.87;2.67;;;16.00;99.90;;;;;;5029042;28;20170;-84
2023/06/28 04:32:31;;;;;;;2.70;2.50;;;16.10;99.90;;;;;;5014734;28;20653;-84
2023/06/28 04:34:59;;;;;;;3.50;3.00;;;16.10;99.90;;;;;;5014951;28;20170;-85
2023/06/28 04:37:31;;;;;;;3.00;2.80;;;16.10;99.90;;;;;;5015588;28;20183;-86
2023/06/28 04:40:04;;;;;;;2.87;2.57;;;16.00;99.90;;;;;;5002690;28;20196;-83
2023/06/28 04:42:29;;;;;;;2.70;2.50;;;15.90;99.90;;;;;;5025835;28;20193;-84
2023/06/28 04:44:59;;;;;;;2.70;2.50;;;15.80;99.90;;;;;;5013555;28;20177;-84
2023/06/28 04:47:28;;;;;;;2.37;2.17;;;15.90;99.90;;;;;;5013380;28;20177;-85
2023/06/28 04:49:54;;;;;;;2.50;2.37;;;15.90;99.90;;;;;;5013875;28;20629;-85
2023/06/28 04:52:25;;;;;;;2.30;2.20;;;15.90;99.90;;;;;;5014102;28;20544;-85
2023/06/28 04:54:51;;;;;;;2.30;2.20;;;15.80;99.90;;;;;;4996724;28;20585;-85
2023/06/28 04:57:20;;;;;;;2.30;2.20;;;15.90;99.90;;;;;;5013381;28;20165;-85
2023/06/28 04:59:46;;;;;;;2.23;2.13;;;15.80;99.90;;;;;;4995971;28;20185;-85
2023/06/28 05:02:13;;;;;;;2.53;2.43;;;15.90;99.90;;;;;;5012803;28;20595;-85
2023/06/28 05:04:41;;;;;;;3.23;2.17;;;15.80;99.90;;;;;;4995772;28;20205;-84
2023/06/28 05:07:07;;;;;;;2.37;2.27;;;15.80;99.90;;;;;;4995684;28;20221;-84
2023/06/28 05:09:35;;;;;;;2.70;2.50;;;15.80;99.90;;;;;;5014851;28;20206;-83
2023/06/28 05:12:02;;;;;;;4.47;2.30;;;15.70;99.90;;;;;;5015411;28;20173;-85
2023/06/28 05:14:29;;;;;;;2.40;2.30;;;15.70;99.90;;;;;;5018392;28;20178;-85
2023/06/28 05:16:56;;;;;;;2.33;2.23;;;15.70;99.90;;;;;;5001062;28;20173;-84
2023/06/28 05:19:22;;;;;;;4.27;3.17;;;15.80;99.90;;;;;;5019278;28;20665;-84
2023/06/28 05:21:49;;;;;;;2.50;2.40;;;15.70;99.90;;;;;;5002326;28;20214;-84
2023/06/28 05:24:16;;;;;;;2.77;2.57;;;15.70;99.90;;;;;;5019598;28;20174;-83
2023/06/28 05:26:42;;;;;;;2.30;2.10;;;15.80;99.90;;;;;;5018683;28;20225;-83
2023/06/28 05:29:09;;;;;;;2.30;2.20;;;15.80;99.90;;;;;;5019845;28;20180;-84
2023/06/28 05:31:40;;;;;;;2.60;2.40;;;15.80;99.90;;;;;;5020711;28;20171;-84
2023/06/28 05:34:06;;;;;;;2.80;2.40;;;15.80;99.90;;;;;;5015990;28;20192;-83
2023/06/28 05:36:32;;;;;;;2.50;2.40;;;15.80;99.90;;;;;;5022241;28;20669;-84
2023/06/28 05:38:58;;;;;;;3.00;2.67;;;15.80;99.90;;;;;;5001106;28;20693;-85
2023/06/28 05:41:24;;;;;;;2.67;2.47;;;15.90;99.90;;;;;;5018428;28;20205;-85
2023/06/28 05:43:50;;;;;;;2.83;2.63;;;15.90;99.90;;;;;;5018845;28;20173;-85
2023/06/28 05:46:16;;;;;;;3.33;2.53;;;16.00;99.90;;;;;;5000423;28;20548;-82
2023/06/28 05:48:43;;;;;;;2.63;2.43;;;16.10;99.90;;;;;;5018662;28;20173;-84
2023/06/28 05:51:12;;;;;;;2.47;2.37;;;16.10;99.90;;;;;;4998812;28;20676;-85
2023/06/28 05:53:38;;;;;;;2.60;2.40;;;16.30;99.90;;;;;;5016307;28;20196;-86
2023/06/28 05:56:05;;;;;;;2.60;2.50;;;16.40;99.90;;;;;;4998830;28;20543;-85
2023/06/28 05:58:31;;;;;;;2.80;2.60;;;16.70;99.90;;;;;;5016403;28;20592;-84
2023/06/28 06:00:57;;;;;;;3.23;2.77;;;16.70;99.90;;;;;;5015636;28;20204;-84
2023/06/28 06:03:23;;;;;;;3.07;2.57;;;17.00;99.90;;;;;;5003253;28;20333;-84
2023/06/28 06:05:49;;;;;;;2.20;2.10;;;17.00;99.90;;;;;;5032142;28;20177;-85
2023/06/28 06:08:15;;;;;;;2.77;2.57;;;17.20;99.90;;;;;;5016773;28;20208;-84
2023/06/28 06:10:41;;;;;;;2.27;2.17;;;17.10;99.90;;;;;;5021219;28;20172;-86
2023/06/28 06:13:06;;;;;;;2.10;2.00;;;17.10;99.90;;;;;;5038195;28;20187;-85
2023/06/28 06:15:32;;;;;;;2.47;2.27;;;17.10;99.90;;;;;;5039301;28;20233;-85
2023/06/28 06:17:58;;;;;;;2.40;2.20;;;17.20;99.90;;;;;;5040007;28;20173;-81
2023/06/28 06:20:24;;;;;;;2.07;1.93;;;17.20;99.90;;;;;;5040119;28;20218;-84
2023/06/28 06:22:50;;;;;;;2.00;1.90;;;17.20;99.90;;;;;;5040046;28;20180;-83
2023/06/28 06:25:16;;;;;;;2.40;2.27;;;17.20;99.90;;;;;;5039094;28;20215;-85
2023/06/28 06:27:42;;;;;;;2.13;2.03;;;17.30;99.90;;;;;;5040184;28;20146;-86
2023/06/28 06:30:10;;;;;;;2.53;2.30;;;17.10;99.90;;;;;;5040227;28;20225;-84
2023/06/28 06:32:36;;;;;;;2.93;2.73;;;17.30;99.90;;;;;;5037682;28;20234;-83
2023/06/28 06:35:02;;;;;;;3.33;2.40;;;17.50;99.90;;;;;;5036282;28;20169;-82
2023/06/28 06:37:28;;;;;;;2.30;2.20;;;17.80;99.90;;;;;;5036568;28;20172;-82
2023/06/28 06:39:54;;;;;;;2.47;2.27;;;17.80;99.90;;;;;;5038733;28;20181;-81
2023/06/28 06:42:20;;;;;;;2.97;2.70;;;17.70;99.90;;;;;;5035964;28;20215;-83
2023/06/28 06:44:46;;;;;;;2.43;2.23;;;17.70;99.90;;;;;;5038562;28;20154;-82
2023/06/28 06:47:12;;;;;;;2.63;2.50;;;17.70;99.90;;;;;;5037613;28;20618;-82
2023/06/28 06:49:38;;;;;;;3.03;2.40;;;17.50;99.90;;;;;;5019203;28;20506;-83
2023/06/28 06:52:04;;;;;;;2.67;2.47;;;17.50;99.90;;;;;;5016117;28;20177;-81
2023/06/28 06:54:30;;;;;;;2.47;2.37;;;17.60;99.90;;;;;;5015924;28;20529;-85
2023/06/28 06:56:58;;;;;;;2.50;2.40;;;17.70;99.90;;;;;;4998251;28;20548;-84
2023/06/28 06:59:24;;;;;;;1.77;1.77;;;17.90;99.90;;;;;;5015915;28;20169;-87
2023/06/28 07:01:51;;;;;;;2.10;2.00;;;18.00;99.90;;;;;;4997996;28;20213;-84
2023/06/28 07:04:17;;;;;;;2.10;1.97;;;17.90;99.90;;;;;;5015421;28;20216;-87
2023/06/28 07:06:45;;;;;;;1.67;1.67;;;17.80;99.90;;;;;;5015321;28;20183;-84
2023/06/28 07:09:10;;;;;;;2.57;2.47;;;17.70;99.90;;;;;;5015262;28;20169;-85
2023/06/28 07:11:36;;;;;;;2.30;2.20;;;17.50;99.90;;;;;;5015015;28;20265;-85
2023/06/28 07:14:02;;;;;;;2.50;2.40;;;17.50;99.90;;;;;;5020104;28;20259;-85
2023/06/28 07:16:28;;;;;;;2.60;2.37;;;17.40;99.90;;;;;;5018979;28;20172;-84
2023/06/28 07:18:54;;;;;;;2.97;2.20;;;17.40;99.90;;;;;;5015022;28;20219;-84
2023/06/28 07:21:21;;;;;;;2.63;2.43;;;17.40;99.90;;;;;;5014666;28;20209;-82
2023/06/28 07:23:46;;;;;;;2.47;2.33;;;17.50;99.90;;;;;;5014382;28;20192;-85
2023/06/28 07:26:17;;;;;;;2.43;2.23;;;17.80;99.90;;;;;;5016258;28;20233;-87
2023/06/28 07:28:44;;;;;;;2.47;2.27;;;18.00;99.90;;;;;;5015725;28;20177;-83
2023/06/28 07:31:10;;;;;;;3.70;2.53;;;18.10;99.90;;;;;;5015125;28;20180;-83
2023/06/28 07:33:36;;;;;;;2.47;2.30;;;18.30;99.90;;;;;;5016224;28;20196;-84
2023/06/28 07:36:02;;;;;;;2.10;1.87;;;18.60;99.90;;;;;;5015762;28;20610;-85
2023/06/28 07:38:27;;;;;;;2.83;2.03;;;18.70;99.90;;;;;;5025818;28;20169;-84
2023/06/28 07:40:53;;;;;;;1.53;1.53;;;18.80;99.90;;;;;;5021570;28;20263;-86
2023/06/28 07:43:20;;;;;;;1.53;1.53;;;19.10;99.90;;;;;;5015176;28;20169;-85
2023/06/28 07:45:46;;;;;;;1.90;1.80;;;19.40;99.90;;;;;;5023943;28;20204;-83
2023/06/28 07:48:12;;;;;;;2.53;2.33;;;19.70;99.90;;;;;;5026323;28;20204;-84
2023/06/28 07:50:38;;;;;;;2.37;2.17;;;19.60;99.90;;;;;;5015641;28;20260;-84
2023/06/28 07:53:04;;;;;;;2.13;1.90;;;19.50;99.90;;;;;;5014837;28;20181;-84
2023/06/28 07:55:30;;;;;;;1.60;1.60;;;19.70;99.90;;;;;;5014914;28;20173;-84
2023/06/28 07:57:56;;;;;;;1.70;1.60;;;19.80;99.90;;;;;;5026477;28;20240;-82
2023/06/28 08:00:26;;;;;;;1.70;1.60;;;19.70;99.90;;;;;;5019903;28;20288;-85
2023/06/28 08:02:52;;;;;;;2.00;1.80;;;19.70;99.90;;;;;;5014611;28;20180;-83
2023/06/28 08:05:19;;;;;;;1.60;1.50;;;19.40;99.90;;;;;;5014522;28;20586;-84
2023/06/28 08:07:46;;;;;;;1.80;1.70;;;19.10;99.90;;;;;;5013916;28;20181;-85
2023/06/28 08:10:11;;;;;;;2.13;1.90;;;19.40;99.90;;;;;;5014169;28;20176;-85
2023/06/28 08:12:37;;;;;;;1.90;1.80;;;19.50;99.90;;;;;;5014078;28;20177;-85
2023/06/28 08:15:03;;;;;;;1.80;1.60;;;19.50;99.90;;;;;;5013787;28;20585;-84
2023/06/28 08:17:29;;;;;;;1.97;1.87;;;19.30;99.90;;;;;;5013841;28;20188;-83
2023/06/28 08:19:55;;;;;;;1.80;1.70;;;19.10;99.90;;;;;;5013735;28;20215;-83
2023/06/28 08:22:20;;;;;;;1.67;1.57;;;19.00;99.90;;;;;;5013653;28;20242;-83
2023/06/28 08:24:47;;;;;;;1.93;1.83;;;19.00;99.90;;;;;;5013504;28;20208;-81
2023/06/28 08:27:13;;;;;;;1.70;1.60;;;19.00;99.90;;;;;;5013572;28;20523;-84
2023/06/28 08:29:38;;;;;;;1.63;1.63;;;19.00;99.90;;;;;;5013518;28;20311;-84
2023/06/28 08:32:04;;;;;;;2.40;2.20;;;19.20;99.90;;;;;;5013743;28;20205;-81
2023/06/28 08:34:30;;;;;;;1.83;1.77;;;19.40;99.90;;;;;;5013470;28;20259;-85
2023/06/28 08:36:56;;;;;;;2.17;1.97;;;19.70;99.90;;;;;;5013624;28;20281;-82
2023/06/28 08:39:22;;;;;;;1.40;1.40;;;19.70;99.90;;;;;;5013790;28;20185;-86
2023/06/28 08:41:48;;;;;;;1.40;1.30;;;19.70;99.90;;;;;;5013915;28;20766;-82
2023/06/28 08:44:17;;;;;;;1.50;1.50;;;19.80;99.90;;;;;;5014515;28;20196;-84
2023/06/28 08:46:46;;;;;;;1.60;1.50;;;19.90;99.90;;;;;;5014114;28;20253;-84
2023/06/28 08:49:13;;;;;;;1.20;1.20;;;20.00;99.90;;;;;;4999548;28;20187;-83
2023/06/28 08:51:39;;;;;;;1.43;1.33;;;20.10;99.90;;;;;;4999666;28;20641;-83
2023/06/28 08:54:07;;;;;;;1.50;1.50;;;20.40;99.90;;;;;;5017171;28;20184;-84
2023/06/28 08:56:33;;;;;;;1.30;1.30;;;20.60;99.90;;;;;;5016830;28;20228;-84
2023/06/28 08:59:00;;;;;;;1.30;1.20;;;20.40;99.90;;;;;;5017017;28;20169;-83
2023/06/28 09:01:26;;;;;;;1.17;1.17;;;20.10;99.90;;;;;;5016790;28;20209;-83
2023/06/28 09:03:54;;;;;;;1.53;1.43;;;20.00;99.90;;;;;;5017187;28;20231;-83
2023/06/28 09:06:21;;;;;;;1.13;1.13;;;19.70;99.90;;;;;;5017015;28;20177;-84
2023/06/28 09:08:48;;;;;;;0.97;0.97;;;19.60;99.90;;;;;;5018077;28;20169;-83
2023/06/28 09:11:16;;;;;;;1.13;1.13;;;19.70;99.90;;;;;;5017457;28;20183;-84
2023/06/28 09:13:43;;;;;;;1.13;1.13;;;20.00;99.90;;;;;;4999293;28;20545;-84
2023/06/28 09:16:10;;;;;;;1.10;1.10;;;19.80;99.90;;;;;;5016941;28;20212;-83
2023/06/28 09:18:36;;;;;;;1.20;1.20;;;19.80;99.90;;;;;;5017048;28;20181;-81
2023/06/28 09:21:02;;;;;;;1.10;1.10;;;19.80;99.90;;;;;;5016684;28;20208;-82
2023/06/28 09:23:30;;;;;;;1.30;1.30;;;20.00;99.90;;;;;;5021205;28;20173;-83
2023/06/28 09:25:56;;;;;;;1.00;1.00;;;20.40;99.90;;;;;;5029754;28;20237;-84
2023/06/28 09:28:27;;;;;;;1.17;1.17;;;20.80;99.90;;;;;;5017538;28;20536;-82
2023/06/28 09:30:54;;;;;;;1.20;1.20;;;20.70;99.90;;;;;;5017208;28;20228;-83
2023/06/28 09:33:21;;;;;;;1.27;1.17;;;20.50;99.90;;;;;;5018475;28;20171;-82
2023/06/28 09:35:47;;;;;;;1.37;1.27;;;20.50;99.90;;;;;;5026046;28;20169;-81
2023/06/28 09:38:13;;;;;;;1.10;1.10;;;20.70;99.30;;;;;;5025485;28;20173;-81
2023/06/28 09:40:38;;;;;;;1.00;1.00;;;20.80;99.70;;;;;;5016373;28;20212;-83
2023/06/28 09:43:04;;;;;;;0.90;0.90;;;20.90;99.90;;;;;;5016088;28;20181;-85
2023/06/28 09:45:32;;;;;;;1.20;1.20;;;21.20;98.60;;;;;;5016439;28;20165;-84
2023/06/28 09:48:03;;;;;;;1.40;1.30;;;21.50;99.60;;;;;;5015911;28;20253;-85
2023/06/28 09:50:38;;;;;;;1.30;1.20;;;21.70;99.50;;;;;;5016772;28;20182;-83
2023/06/28 09:53:15;;;;;;;2.27;1.30;;;21.80;98.80;;;;;;5016424;28;20173;-83
2023/06/28 09:55:43;;;;;;;1.83;1.10;;;21.90;97.80;;;;;;5015980;28;20683;-81
2023/06/28 09:58:15;;;;;;;1.20;1.20;;;22.00;98.50;;;;;;5015321;28;20259;-82
2023/06/28 10:00:46;;;;;;;1.90;0.93;;;21.80;98.60;;;;;;4998156;28;20689;-81
2023/06/28 10:03:13;;;;;;;1.20;1.20;;;21.70;99.70;;;;;;4998030;28;20703;-83
2023/06/28 10:05:42;;;;;;;1.40;1.30;;;21.50;99.40;;;;;;4997983;28;20177;-83
2023/06/28 10:08:09;;;;;;;1.40;1.20;;;21.30;99.00;;;;;;4998144;28;20177;-84
2023/06/28 10:10:37;;;;;;;1.20;1.20;;;21.20;99.20;;;;;;4998113;28;20268;-84
2023/06/28 10:13:03;;;;;;;2.50;1.17;;;21.10;98.20;;;;;;5015809;28;20176;-84
2023/06/28 10:15:37;;;;;;;1.10;1.10;;;21.00;98.20;;;;;;5015350;28;20169;-84
2023/06/28 10:18:04;;;;;;;1.00;1.00;;;20.90;98.00;;;;;;5015554;28;20644;-82
2023/06/28 10:20:29;;;;;;;1.67;1.40;;;21.10;98.00;;;;;;5015162;28;20173;-84
2023/06/28 10:22:57;;;;;;;1.30;1.20;;;21.20;98.10;;;;;;5016012;28;20204;-84
2023/06/28 10:25:27;;;;;;;1.20;1.20;;;21.40;97.40;;;;;;5015123;28;20638;-83
2023/06/28 10:27:53;;;;;;;2.20;2.07;;;21.50;97.00;;;;;;5015291;28;20629;-85
2023/06/28 10:30:21;;;;;;;1.40;1.40;;;21.90;96.90;;;;;;5015145;28;20173;-84
2023/06/28 10:32:48;;;;;;;1.30;1.30;;;22.00;96.00;;;;;;5014989;28;20220;-85
2023/06/28 10:35:15;;;;;;;1.50;1.50;;;22.10;95.50;;;;;;5015043;28;20197;-83
2023/06/28 10:37:41;;;;;;;1.20;1.20;;;22.30;94.80;;;;;;5015434;28;20605;-85
2023/06/28 10:40:09;;;;;;;0.90;0.90;;;22.20;94.60;;;;;;5014888;28;20272;-84
2023/06/28 10:42:41;;;;;;;1.20;1.20;;;22.00;95.00;;;;;;5015150;28;20586;-84
2023/06/28 10:45:10;;;;;;;1.43;1.40;;;22.00;94.80;;;;;;5015194;28;20264;-83
2023/06/28 10:47:38;;;;;;;1.30;1.30;;;22.00;94.80;;;;;;5015870;28;20173;-83
2023/06/28 10:50:15;;;;;;;1.10;1.10;;;22.30;94.90;;;;;;5017877;28;20161;-85
2023/06/28 10:52:57;;;;;;;1.00;1.00;;;22.40;93.30;;;;;;5016846;28;20175;-85
2023/06/28 10:55:49;;;;;;;1.90;0.90;;;22.30;92.10;;;;;;5015324;28;20213;-86
2023/06/28 10:58:14;;;;;;;0.97;0.97;;;22.30;91.20;;;;;;5013055;28;20205;-84
2023/06/28 11:00:42;;;;;;;1.50;1.50;;;22.30;91.00;;;;;;5015042;28;20231;-83
2023/06/28 11:03:09;;;;;;;1.03;0.87;;;22.10;90.30;;;;;;5023091;28;20200;-84
2023/06/28 11:05:54;;;;;;;0.83;0.83;;;22.10;90.20;;;;;;5019781;28;20170;-85
2023/06/28 11:08:27;;;;;;;1.30;1.07;;;22.20;90.10;;;;;;4997234;28;20622;-85
2023/06/28 11:10:58;;;;;;;1.00;1.00;;;21.90;89.30;;;;;;5014007;28;20252;-85
2023/06/28 11:13:39;;;;;;;1.03;1.03;;;21.80;88.80;;;;;;5015207;28;20176;-84
2023/06/28 11:16:24;;;;;;;1.07;0.80;;;21.80;90.20;;;;;;5026938;28;20158;-83
2023/06/28 11:18:51;;;;;;;1.00;0.97;;;22.10;90.70;;;;;;5015520;28;20208;-83
2023/06/28 11:21:26;;;;;;;0.77;0.77;;;22.20;88.00;;;;;;5014457;28;20680;-81
2023/06/28 11:23:54;;;;;;;1.00;1.00;;;22.20;89.30;;;;;;5014527;28;20188;-83
2023/06/28 11:26:41;;;;;;;1.03;1.03;;;22.20;90.10;;;;;;4996105;28;20692;-84
2023/06/28 11:29:50;;;;;;;1.00;1.00;;;22.20;89.40;;;;;;5014212;28;20660;-85
2023/06/28 11:32:23;;;;;;;1.00;1.00;;;22.00;89.00;;;;;;5014104;28;20177;-86
2023/06/28 11:34:49;;;;;;;1.30;1.00;;;22.10;90.20;;;;;;4996655;28;20165;-82
2023/06/28 11:37:16;;;;;;;0.97;0.97;;;22.10;89.00;;;;;;4996890;28;20176;-85
2023/06/28 11:39:44;;;;;;;1.00;1.00;;;22.10;87.90;;;;;;4997551;28;20173;-84
2023/06/28 11:42:17;;;;;;;1.23;1.13;;;22.00;88.10;;;;;;4996531;28;20220;-84
2023/06/28 21:45:31;;;;;;;2.27;2.10;;;17.70;98.00;;;;;;5012780;28;20746;-82
2023/06/28 21:52:12;;;;;;;2.20;2.10;;;17.60;98.00;;;;;;4934479;29;20676;-80
2023/06/28 21:54:38;;;;;;;2.20;2.10;;;17.60;98.00;;;;;;4935322;29;20190;-81
2023/06/28 21:57:04;;;;;;;2.30;2.20;;;17.60;98.20;;;;;;4936066;29;20195;-83
2023/06/28 21:59:30;;;;;;;2.47;2.30;;;17.60;98.20;;;;;;4936342;29;20175;-84
2023/06/28 22:01:56;;;;;;;2.00;1.90;;;17.50;97.90;;;;;;4921237;29;20213;-83
2023/06/28 22:04:22;;;;;;;2.27;2.17;;;17.40;97.90;;;;;;4936617;29;20542;-84
2023/06/28 22:06:48;;;;;;;2.70;2.50;;;17.40;97.10;;;;;;4936418;29;20265;-85
2023/06/28 22:09:13;;;;;;;2.10;2.00;;;17.40;97.10;;;;;;4936167;29;20191;-83
2023/06/28 22:11:39;;;;;;;2.00;1.90;;;17.40;97.10;;;;;;4936079;29;20254;-83
2023/06/28 22:14:07;;;;;;;2.10;1.87;;;17.40;97.30;;;;;;4935962;29;20186;-84
2023/06/28 22:16:39;;;;;;;2.60;2.27;;;17.40;97.30;;;;;;4935822;29;20989;-83
2023/06/28 22:19:06;;;;;;;2.37;2.27;;;17.40;97.40;;;;;;4935723;29;20180;-85
2023/06/28 22:21:38;;;;;;;2.10;2.00;;;17.40;97.40;;;;;;4943549;28;20283;-86
2023/06/28 22:24:10;;;;;;;2.10;2.00;;;17.40;97.40;;;;;;4976183;28;20177;-84
2023/06/28 22:26:39;;;;;;;2.87;1.87;;;17.30;98.20;;;;;;4977195;28;20178;-86
2023/06/28 22:29:06;;;;;;;3.07;2.40;;;17.30;97.90;;;;;;4978965;28;20169;-85
2023/06/28 22:31:32;;;;;;;2.57;2.37;;;17.30;98.10;;;;;;4976584;28;20174;-80
2023/06/28 22:34:01;;;;;;;1.93;1.83;;;17.10;98.20;;;;;;4985190;28;20186;-82
2023/06/28 22:36:28;;;;;;;2.40;2.20;;;17.10;98.60;;;;;;4978506;28;20257;-84
2023/06/28 22:38:56;;;;;;;2.30;2.20;;;17.00;99.00;;;;;;4976277;28;20175;-84
2023/06/28 22:41:21;;;;;;;2.43;2.23;;;16.90;99.60;;;;;;4974580;28;20582;-82
2023/06/28 22:43:47;;;;;;;2.10;2.00;;;16.80;99.60;;;;;;4991083;28;20179;-82
2023/06/28 22:46:13;;;;;;;2.73;2.53;;;16.80;99.70;;;;;;4992224;28;20250;-83
2023/06/28 22:48:39;;;;;;;2.30;2.10;;;16.70;99.80;;;;;;4976766;28;20175;-83
2023/06/28 22:51:05;;;;;;;2.00;1.90;;;16.80;99.60;;;;;;4977611;28;20244;-83
2023/06/28 22:53:32;;;;;;;2.33;2.07;;;16.70;99.60;;;;;;4988016;28;20228;-83